createdAt,value
2022-09-01T04:34:28.121Z,3.73
2022-09-01T04:37:20.635Z,3.13
2022-09-01T04:40:10.296Z,4.95
2022-09-01T04:42:55.756Z,2.47
2022-09-01T04:45:43.010Z,3.08
2022-09-01T04:48:28.447Z,2.50
2022-09-01T04:51:15.539Z,3.67
2022-09-01T04:54:14.240Z,3.22
2022-09-01T04:57:01.078Z,2.90
2022-09-01T04:59:48.168Z,3.88
2022-09-01T05:02:33.586Z,4.43
2022-09-01T05:05:20.790Z,3.58
2022-09-01T05:08:06.928Z,5.15
2022-09-01T05:10:53.692Z,2.55
2022-09-01T05:13:50.081Z,2.85
2022-09-01T05:16:36.092Z,4.50
2022-09-01T05:19:24.264Z,3.42
2022-09-01T05:22:10.729Z,4.82
2022-09-01T05:25:11.664Z,3.20
2022-09-01T05:27:57.932Z,5.93
2022-09-01T05:30:45.269Z,5.00
2022-09-01T05:33:30.405Z,4.07
2022-09-01T05:36:19.766Z,4.47
2022-09-01T05:39:07.348Z,4.35
2022-09-01T05:41:53.977Z,3.30
2022-09-01T05:44:44.093Z,3.60
2022-09-01T05:47:31.000Z,5.43
2022-09-01T05:50:19.250Z,3.08
2022-09-01T05:53:08.860Z,4.18
2022-09-01T05:55:59.423Z,3.47
2022-09-01T06:01:55.044Z,3.50
2022-09-01T06:04:41.269Z,3.10
2022-09-01T06:07:30.647Z,2.63
2022-09-01T06:10:18.427Z,3.70
2022-09-01T06:13:04.001Z,4.17
2022-09-01T06:15:50.919Z,3.33
2022-09-01T06:18:36.923Z,2.95
2022-09-01T06:21:22.439Z,4.22
2022-09-01T06:24:08.056Z,4.03
2022-09-01T06:26:54.888Z,3.00
2022-09-01T06:29:40.881Z,5.82
2022-09-01T06:32:27.901Z,2.58
2022-09-01T06:35:15.788Z,4.03
2022-09-01T06:38:02.975Z,4.13
2022-09-01T06:41:04.950Z,5.00
2022-09-01T06:43:52.535Z,3.13
2022-09-01T06:46:38.063Z,3.47
2022-09-01T06:49:32.480Z,2.92
2022-09-01T06:52:20.787Z,3.42
2022-09-01T06:58:15.604Z,4.32
2022-09-01T07:01:08.284Z,2.53
2022-09-01T07:03:57.138Z,4.35
2022-09-01T07:07:54.392Z,3.65
2022-09-01T07:10:30.012Z,2.57
2022-09-01T07:13:25.721Z,3.13
2022-09-01T07:16:32.896Z,2.95
2022-09-01T07:19:20.499Z,3.30
2022-09-01T07:25:34.978Z,3.57
2022-09-01T07:28:41.231Z,3.20
2022-09-01T07:34:38.679Z,3.63
2022-09-01T07:42:57.012Z,3.33
2022-09-01T07:44:05.058Z,4.10
2022-09-01T07:47:52.366Z,2.80
2022-09-01T07:53:36.195Z,3.20
2022-09-01T07:56:24.777Z,3.13
2022-09-01T07:59:15.316Z,3.47
2022-09-01T08:02:08.942Z,1.75
2022-09-01T08:04:55.668Z,2.70
2022-09-01T08:07:56.142Z,2.97
2022-09-01T08:10:49.391Z,2.87
2022-09-01T08:13:42.025Z,2.20
2022-09-01T08:16:39.459Z,6.80
2022-09-01T08:19:27.556Z,2.35
2022-09-01T08:22:26.195Z,3.00
2022-09-01T08:25:24.661Z,2.40
2022-09-01T08:28:12.589Z,2.50
2022-09-01T08:31:00.210Z,2.63
2022-09-01T08:33:48.182Z,2.85
2022-09-01T08:36:33.601Z,2.45
2022-09-01T08:39:19.322Z,3.10
2022-09-01T08:42:43.300Z,3.15
2022-09-01T08:45:35.882Z,3.47
2022-09-01T08:51:39.237Z,4.60
2022-09-01T08:54:45.590Z,2.67
2022-09-01T08:57:41.289Z,2.55
2022-09-01T09:00:55.919Z,3.53
2022-09-01T09:03:51.659Z,2.55
2022-09-01T09:07:02.160Z,2.50
2022-09-01T09:10:14.876Z,2.00
2022-09-01T09:13:16.685Z,2.55
2022-09-01T09:16:08.611Z,3.58
2022-09-01T09:19:01.111Z,2.53
2022-09-01T09:21:48.798Z,2.30
2022-09-01T09:24:49.884Z,2.07
2022-09-01T09:27:43.796Z,2.55
2022-09-01T09:30:32.514Z,3.65
2022-09-01T09:33:51.254Z,2.85
2022-09-01T09:36:43.202Z,3.55
2022-09-01T09:39:31.478Z,3.37
2022-09-01T09:42:19.606Z,4.00
2022-09-01T09:45:05.946Z,3.05
2022-09-01T09:47:52.462Z,2.80
2022-09-01T09:50:40.439Z,3.35
2022-09-01T09:53:33.151Z,4.00
2022-09-01T09:56:23.078Z,2.75
2022-09-01T09:59:54.116Z,3.05
2022-09-01T10:02:36.939Z,3.20
2022-09-01T10:05:39.515Z,3.67
2022-09-01T10:08:28.680Z,2.70
2022-09-01T10:11:45.061Z,2.85
2022-09-01T10:14:52.188Z,3.50
2022-09-01T10:17:43.628Z,2.47
2022-09-01T10:20:29.086Z,3.78
2022-09-01T10:23:15.426Z,3.70
2022-09-01T10:26:09.795Z,3.05
2022-09-01T10:29:05.389Z,2.72
2022-09-01T10:32:08.554Z,3.55
2022-09-01T10:34:59.907Z,2.67
2022-09-01T10:37:48.840Z,2.87
2022-09-01T10:40:36.075Z,3.28
2022-09-01T10:43:41.417Z,3.75
2022-09-01T10:46:38.587Z,2.88
2022-09-01T10:49:31.965Z,2.50
2022-09-01T10:52:51.254Z,2.70
2022-09-01T10:55:46.938Z,3.30
2022-09-01T11:02:22.243Z,2.00
2022-09-01T11:04:58.967Z,2.55
2022-09-01T11:08:09.131Z,3.13
2022-09-01T11:11:04.021Z,3.00
2022-09-01T11:13:52.074Z,1.80
2022-09-01T11:16:46.720Z,3.03
2022-09-01T11:19:59.027Z,3.25
2022-09-01T11:23:04.696Z,3.17
2022-09-01T11:29:00.662Z,2.53
2022-09-01T11:31:47.055Z,2.72
2022-09-01T11:34:42.739Z,2.33
2022-09-01T11:37:28.846Z,4.23
2022-09-01T11:40:21.597Z,2.35
2022-09-01T11:43:16.528Z,1.95
2022-09-01T11:46:11.293Z,2.47
2022-09-01T11:48:58.083Z,1.88
2022-09-01T11:51:48.365Z,2.33
2022-09-01T11:54:42.723Z,2.30
2022-09-01T11:57:28.301Z,1.60
2022-09-01T12:00:24.821Z,1.90
2022-09-01T12:03:25.865Z,2.63
2022-09-01T12:06:18.676Z,3.13
2022-09-01T12:09:05.743Z,2.47
2022-09-01T12:11:52.736Z,1.73
2022-09-01T12:15:01.969Z,2.65
2022-09-01T12:17:43.024Z,2.63
2022-09-01T12:20:32.421Z,2.20
2022-09-01T12:23:22.889Z,2.30
2022-09-01T12:26:17.990Z,2.72
2022-09-01T12:29:04.792Z,2.40
2022-09-01T12:31:52.519Z,2.85
2022-09-01T12:34:40.856Z,2.77
2022-09-01T12:37:27.042Z,3.38
2022-09-01T12:40:34.019Z,3.50
2022-09-01T12:43:38.675Z,2.47
2022-09-01T12:46:46.683Z,2.88
2022-09-01T12:49:38.134Z,4.07
2022-09-01T12:52:35.553Z,4.00
2022-09-01T12:58:30.279Z,1.77
2022-09-01T13:01:32.474Z,2.88
2022-09-01T13:04:25.845Z,2.37
2022-09-01T13:07:10.693Z,3.17
2022-09-01T13:09:56.171Z,3.13
2022-09-01T13:12:42.754Z,5.38
2022-09-01T13:15:28.151Z,2.58
2022-09-01T13:18:14.407Z,2.37
2022-09-01T13:20:59.511Z,3.50
2022-09-01T13:23:44.999Z,3.75
2022-09-01T13:26:31.302Z,2.83
2022-09-01T13:29:17.035Z,2.63
2022-09-01T13:32:20.934Z,3.93
2022-09-01T13:35:08.189Z,2.58
2022-09-01T13:37:53.072Z,2.08
2022-09-01T13:40:38.401Z,3.88
2022-09-01T13:43:27.133Z,3.70
2022-09-01T13:46:12.411Z,2.97
2022-09-01T13:49:41.789Z,2.25
2022-09-01T13:52:03.065Z,1.90
2022-09-01T13:54:48.095Z,2.10
2022-09-01T13:57:36.568Z,3.00
2022-09-01T14:00:25.430Z,3.03
2022-09-01T14:03:17.864Z,4.03
2022-09-01T14:06:03.354Z,2.80
2022-09-01T14:08:48.462Z,4.40
2022-09-01T14:11:34.006Z,3.13
2022-09-01T14:14:19.528Z,3.30
2022-09-01T14:17:04.548Z,1.50
2022-09-01T14:19:51.552Z,2.67
2022-09-01T14:22:38.642Z,1.80
2022-09-01T14:25:25.413Z,6.32
2022-09-01T14:28:10.540Z,4.97
2022-09-01T14:33:40.542Z,2.92
2022-09-01T14:36:26.846Z,2.33
2022-09-01T14:39:12.117Z,1.85
2022-09-01T14:41:57.445Z,4.33
2022-09-01T14:44:43.658Z,3.40
2022-09-01T14:47:29.843Z,1.98
2022-09-01T14:50:20.059Z,2.40
2022-09-01T14:53:08.706Z,3.42
2022-09-01T14:55:56.234Z,3.53
2022-09-01T14:58:45.211Z,3.20
2022-09-01T15:01:34.636Z,4.55
2022-09-01T15:04:20.273Z,1.75
2022-09-01T15:07:06.437Z,3.47
2022-09-01T15:09:51.930Z,1.80
2022-09-01T15:12:39.672Z,2.33
2022-09-01T15:15:26.992Z,2.95
2022-09-01T15:18:12.259Z,2.40
2022-09-01T15:20:57.868Z,2.20
2022-09-01T15:23:43.867Z,2.40
2022-09-01T15:26:29.376Z,2.60
2022-09-01T15:29:15.145Z,2.28
2022-09-01T15:32:01.877Z,2.92
2022-09-01T15:34:46.926Z,1.45
2022-09-01T15:37:34.914Z,3.57
2022-09-01T15:40:20.679Z,1.98
2022-09-01T15:43:06.219Z,2.22
2022-09-01T15:45:51.423Z,2.28
2022-09-01T15:48:36.566Z,2.00
2022-09-01T15:51:21.713Z,2.40
2022-09-01T15:54:13.160Z,2.75
2022-09-01T15:56:58.110Z,2.15
2022-09-01T15:59:44.265Z,2.17
2022-09-01T16:02:30.751Z,3.80
2022-09-01T16:05:17.762Z,3.47
2022-09-01T16:08:08.295Z,3.72
2022-09-01T16:10:54.319Z,2.10
2022-09-01T16:13:41.406Z,4.35
2022-09-01T16:16:48.467Z,2.85
2022-09-01T16:19:41.523Z,2.67
2022-09-01T16:22:29.984Z,2.72
2022-09-01T16:25:23.632Z,5.03
2022-09-01T16:28:25.215Z,4.38
2022-09-01T16:31:21.757Z,3.78
2022-09-01T16:34:18.125Z,3.50
2022-09-01T16:37:28.442Z,4.85
2022-09-01T16:40:58.114Z,3.60
2022-09-01T16:44:09.433Z,2.08
2022-09-01T16:47:10.510Z,2.83
2022-09-01T16:50:24.013Z,2.87
2022-09-01T16:53:25.510Z,5.20
2022-09-01T16:56:35.379Z,3.58
2022-09-01T16:59:32.940Z,3.28
2022-09-01T17:02:35.895Z,3.00
2022-09-01T17:05:26.023Z,3.23
2022-09-01T17:08:21.716Z,3.05
2022-09-01T17:11:22.706Z,2.42
2022-09-01T17:14:10.213Z,2.90
2022-09-01T17:17:06.622Z,3.30
2022-09-01T17:19:54.409Z,3.73
2022-09-01T17:22:46.283Z,4.47
2022-09-01T17:25:37.594Z,5.65
2022-09-01T17:28:27.505Z,4.00
2022-09-01T17:31:37.045Z,3.80
2022-09-01T17:34:23.778Z,3.93
2022-09-01T17:37:29.037Z,4.45
2022-09-01T17:40:26.669Z,4.53
2022-09-01T17:43:46.027Z,4.63
2022-09-01T17:46:46.664Z,5.55
2022-09-01T17:49:45.987Z,5.33
2022-09-01T17:53:01.148Z,5.70
2022-09-01T17:56:06.418Z,6.82
2022-09-01T17:59:11.876Z,4.70
2022-09-01T18:02:28.660Z,7.13
2022-09-01T18:05:17.086Z,5.17
2022-09-01T18:08:20.690Z,8.25
2022-09-01T18:11:13.110Z,7.68
2022-09-01T18:14:21.207Z,7.70
2022-09-01T18:17:36.252Z,6.75
2022-09-01T18:20:29.836Z,6.90
2022-09-01T18:23:19.726Z,6.35
2022-09-01T18:26:16.592Z,6.80
2022-09-01T18:29:04.885Z,4.20
2022-09-01T18:32:36.000Z,4.70
2022-09-01T18:35:29.687Z,3.63
2022-09-01T18:38:16.773Z,3.83
2022-09-01T18:41:21.882Z,4.35
2022-09-01T18:44:33.718Z,5.88
2022-09-01T18:47:32.321Z,12.43
2022-09-01T18:50:49.312Z,17.40
2022-09-01T18:53:44.234Z,17.92
2022-09-01T18:56:40.916Z,18.70
2022-09-01T18:59:55.560Z,18.60
2022-09-01T19:03:09.716Z,17.33
2022-09-01T19:06:07.800Z,20.57
2022-09-01T19:09:04.139Z,19.42
2022-09-01T19:12:10.466Z,18.63
2022-09-01T19:15:03.881Z,16.15
2022-09-01T19:18:13.362Z,16.13
2022-09-01T19:21:23.183Z,15.60
2022-09-01T19:24:31.406Z,14.95
2022-09-01T19:27:23.933Z,12.15
2022-09-01T19:30:10.962Z,13.43
2022-09-01T19:32:59.408Z,13.90
2022-09-01T19:35:48.554Z,14.27
2022-09-01T19:38:37.279Z,12.75
2022-09-01T19:41:35.819Z,12.35
2022-09-01T19:44:49.055Z,9.88
2022-09-01T19:47:59.690Z,10.13
2022-09-01T19:50:52.955Z,9.33
2022-09-01T19:53:48.871Z,8.52
2022-09-01T19:56:49.868Z,7.93
2022-09-01T19:59:47.562Z,8.80
2022-09-01T20:02:38.303Z,9.52
2022-09-01T20:05:34.241Z,6.80
2022-09-01T20:08:25.974Z,6.90
2022-09-01T20:11:27.959Z,7.15
2022-09-01T20:15:00.633Z,7.10
2022-09-01T20:18:12.721Z,6.95
2022-09-01T20:21:06.384Z,7.63
2022-09-01T20:24:03.541Z,7.63
2022-09-01T20:27:38.315Z,8.00
2022-09-01T20:30:27.207Z,8.43
2022-09-01T20:33:22.262Z,11.35
2022-09-01T20:36:13.801Z,6.90
2022-09-01T20:39:33.095Z,9.57
2022-09-01T20:42:23.101Z,8.98
2022-09-01T20:45:17.457Z,9.75
2022-09-01T20:48:14.301Z,9.10
2022-09-01T20:51:11.743Z,9.90
2022-09-01T20:54:03.297Z,9.13
2022-09-01T20:57:13.601Z,7.68
2022-09-01T21:00:05.043Z,7.40
2022-09-01T21:06:44.753Z,7.53
2022-09-01T21:09:31.187Z,7.45
2022-09-01T21:12:16.087Z,7.30
2022-09-01T21:15:07.631Z,7.35
2022-09-01T21:18:09.913Z,7.57
2022-09-01T21:20:55.355Z,8.47
2022-09-01T21:23:40.503Z,8.43
2022-09-01T21:26:25.659Z,7.15
2022-09-01T21:29:28.707Z,7.80
2022-09-01T21:32:15.942Z,8.63
2022-09-01T21:35:02.098Z,7.63
2022-09-01T21:37:47.377Z,8.07
2022-09-01T21:40:33.795Z,6.88
2022-09-01T21:43:28.331Z,16.38
2022-09-01T21:46:16.365Z,23.58
2022-09-01T21:49:02.067Z,19.47
2022-09-01T21:51:47.443Z,9.10
2022-09-01T21:54:33.578Z,10.82
2022-09-01T21:57:20.864Z,18.33
2022-09-01T22:00:12.808Z,16.55
2022-09-01T22:03:01.702Z,14.37
2022-09-01T22:05:46.801Z,17.92
2022-09-01T22:08:31.971Z,13.13
2022-09-01T22:11:17.489Z,11.60
2022-09-01T22:14:03.885Z,13.60
2022-09-01T22:16:49.959Z,11.17
2022-09-01T22:19:36.352Z,11.48
2022-09-01T22:22:21.255Z,10.18
2022-09-01T22:25:09.499Z,13.52
2022-09-01T22:27:55.868Z,13.80
2022-09-01T22:30:46.301Z,12.00
2022-09-01T22:33:31.464Z,12.85
2022-09-01T22:36:23.433Z,9.32
2022-09-01T22:39:13.677Z,11.15
2022-09-01T22:41:59.825Z,10.45
2022-09-01T22:44:45.209Z,13.03
2022-09-01T22:47:30.678Z,9.57
2022-09-01T22:50:20.425Z,9.30
2022-09-01T22:53:06.211Z,11.52
2022-09-01T22:55:52.554Z,9.32
2022-09-01T22:58:38.597Z,8.87
2022-09-01T23:47:14.160Z,8.17
2022-09-01T23:49:59.477Z,10.73
2022-09-01T23:52:46.015Z,8.95
2022-09-01T23:55:30.990Z,8.90
2022-09-01T23:58:17.374Z,8.20
